メインページ
METAR-TAF:

METAR-TAF

空港 :

ワシントン州, バージニア州, アメリカ合衆国

ワシントン・ダレス国際空港

緯度: 38-56-05N, 経度: 077-26-51W, 海抜: 95m

現時点の気象観測

当レポートは47分前の21:52(UTC)に作成
東/南東の風 6kt
気温 28°C
湿度 51%
気圧 1019 hPa
視程: 16.1km
高度5000ftの雲は散在している

METAR: KIAD 262152Z 12006KT 10SM SCT050 28/17 A3010 RMK AO2 SLP190 T02830167

時間: 18:39 (22:39 UTC)

予報

当レポートは1時間41分前の20:58(UTC)に作成
予報は26日の 21時(UTC)から 27日の 24時(UTC)まで有効
東/北東の風 4kt
視程: 10km
高度5000ftの雲は散在している
27日の 0000時(UTC)から
南東の風 5kt
視程: 10km
高度25000ftの雲は散在している
27日の 0900時(UTC)から
の風 5kt
視程: 10km
高度1500ftの雲は散在している
高度2500ftの千切れ雲あり
27日の 1400時(UTC)から
南/南西の風 7kt
視程: 10km
高度4000ftの千切れ雲あり

TAF: KIAD 262058Z 2621/2724 07004KT P6SM SCT050 FM270000 14005KT P6SM SCT250 FM270900 18005KT P6SM SCT015 BKN025 FM271400 20007KT P6SM BKN040

4,000以上の空港の気象観測と天気予報(METAR報とTAF報)

利用可能な観測所は地図上に黄色い丸と赤い丸で示す。

丸の上にカーソルを重ねると観測所名を参照できる。

次にクリックすると気象観測と天気予報を参照できる。

マップの切り替え:黒色「×」印の緑ボタンをクリックして拡大、「-」印の緑ボタンをクリックして縮小、緑色の三角印をクリックして隣りの地図に切り替え


METAR-TAF: